Terminal Aerodrome Forecast
Issued by NWS Shreveport, LA

Home | Current Version | Previous Version | Text Only | Print | Product List | Glossary On
Versions: 1 2 3 4 5 6 7 8 9 10 11 12 13 14 15 16
000
FTUS44 KSHV 201700
TAFLFK
TAF
KLFK 201732Z 2018/2118 05007KT P6SM OVC011
     FM202100 05005KT P6SM BKN020
     FM210000 06004KT P6SM BKN025
     FM210400 07003KT P6SM OVC015
     FM210800 07003KT 4SM BR OVC007
     FM211500 10005KT P6SM SCT007 OVC035=

USA.gov is the U.S. government's official web portal to all federal, state and local government web resources and services.